createdAt,value
2023-03-06T00:01:03.118Z,-0.88
2023-03-06T00:11:05.501Z,-0.93
2023-03-06T00:21:08.571Z,-0.91
2023-03-06T00:31:10.815Z,-0.88
2023-03-06T00:41:13.480Z,-0.75
2023-03-06T00:51:17.347Z,-0.72
2023-03-06T01:01:19.689Z,-0.71
2023-03-06T01:11:22.481Z,-0.56
2023-03-06T01:21:25.008Z,-0.62
2023-03-06T01:31:27.267Z,-0.59
2023-03-06T01:41:30.086Z,-0.70
2023-03-06T01:51:36.310Z,-0.81
2023-03-06T02:01:40.675Z,-0.92
2023-03-06T02:11:44.378Z,-1.10
2023-03-06T02:21:46.801Z,-1.01
2023-03-06T02:31:49.196Z,-0.84
2023-03-06T06:05:11.800Z,-4.38
2023-03-06T06:15:15.519Z,-3.20
2023-03-06T06:25:17.802Z,-2.27
2023-03-06T06:35:20.224Z,-1.71
2023-03-06T06:45:22.482Z,-1.19
2023-03-06T06:55:24.648Z,-0.84
2023-03-06T07:05:26.972Z,-0.34
2023-03-06T07:15:30.964Z,1.03
2023-03-06T07:25:34.159Z,1.80
2023-03-06T07:35:36.978Z,2.03
2023-03-06T07:45:39.275Z,3.03
2023-03-06T07:55:41.786Z,3.65
2023-03-06T08:05:44.974Z,2.67
2023-03-06T08:15:48.930Z,2.33
2023-03-06T08:25:56.576Z,2.39
2023-03-06T08:36:00.644Z,2.23
2023-03-06T08:46:03.784Z,2.46
2023-03-06T08:56:06.561Z,2.85
2023-03-06T09:06:08.761Z,3.26
2023-03-06T09:16:12.184Z,3.65
2023-03-06T09:26:14.545Z,3.86
2023-03-06T09:36:19.433Z,4.26
2023-03-06T09:46:25.667Z,4.82
2023-03-06T09:56:32.932Z,4.69
2023-03-06T10:06:57.062Z,4.21
2023-03-06T10:16:59.405Z,3.60
2023-03-06T10:27:26.158Z,3.67
2023-03-06T10:37:32.650Z,3.47
2023-03-06T10:47:35.488Z,3.72
2023-03-06T10:57:37.694Z,3.85
2023-03-06T11:07:55.372Z,3.74
2023-03-06T11:18:01.844Z,3.45
2023-03-06T11:28:47.096Z,3.38
2023-03-06T11:38:51.739Z,3.53
2023-03-06T11:49:01.533Z,3.43
2023-03-06T11:59:28.361Z,3.45
2023-03-06T12:10:09.775Z,3.48
2023-03-06T12:20:40.134Z,4.23
2023-03-06T12:30:57.057Z,4.66
2023-03-06T12:41:14.303Z,5.23
2023-03-06T12:51:20.260Z,5.55
2023-03-06T13:01:40.771Z,5.11
2023-03-06T13:11:49.103Z,4.94
2023-03-06T13:21:54.396Z,4.58
2023-03-06T13:31:58.162Z,4.34
2023-03-06T13:42:00.492Z,4.47
2023-03-06T13:52:10.988Z,4.04
2023-03-06T14:02:51.064Z,3.97
2023-03-06T14:13:17.734Z,3.89
2023-03-06T14:23:35.731Z,4.05
2023-03-06T14:33:53.032Z,3.74
2023-03-06T14:44:08.558Z,3.38
2023-03-06T14:54:17.381Z,3.27
2023-03-06T15:04:41.144Z,2.96
2023-03-06T15:14:58.692Z,2.88
2023-03-06T15:25:26.882Z,2.61
2023-03-06T15:35:38.341Z,2.53
2023-03-06T15:45:40.708Z,2.37
2023-03-06T15:55:43.323Z,2.12
2023-03-06T16:05:45.508Z,1.99
2023-03-06T16:15:50.197Z,1.73
2023-03-06T16:25:52.549Z,1.30
2023-03-06T16:35:54.766Z,0.98
2023-03-06T16:45:57.153Z,0.80
2023-03-06T16:55:59.325Z,0.61
2023-03-06T17:06:01.533Z,0.41
2023-03-06T17:16:04.040Z,0.21
2023-03-06T17:26:13.849Z,0.58
2023-03-06T17:36:16.423Z,0.53
2023-03-06T17:46:18.964Z,0.37
2023-03-06T17:56:21.659Z,0.27
2023-03-06T18:06:26.228Z,0.05
2023-03-06T18:16:28.518Z,-0.09
2023-03-06T18:26:30.868Z,-0.32
2023-03-06T18:36:34.416Z,-0.47
2023-03-06T18:46:38.594Z,-0.28
2023-03-06T18:56:44.203Z,-0.38
2023-03-06T19:06:46.482Z,-0.60
2023-03-06T19:16:49.454Z,-0.92
2023-03-06T19:26:51.665Z,-1.19
2023-03-06T19:36:53.923Z,-1.22
2023-03-06T19:46:56.191Z,-1.00
2023-03-06T19:56:58.580Z,-0.86
2023-03-06T20:07:01.740Z,-0.68
2023-03-06T20:17:03.977Z,-0.54
2023-03-06T20:27:06.566Z,-0.52
2023-03-06T20:37:10.008Z,-0.45
2023-03-06T20:47:12.263Z,-0.36
2023-03-06T20:57:14.529Z,-0.33
2023-03-06T21:07:17.087Z,-0.24
2023-03-06T21:17:19.378Z,-0.35
2023-03-06T21:27:21.558Z,-0.48
2023-03-06T21:40:11.408Z,-0.46
2023-03-06T21:50:14.033Z,-0.40
2023-03-06T22:00:16.469Z,-0.45
2023-03-06T22:10:18.754Z,-0.48
2023-03-06T22:20:21.013Z,-0.40
2023-03-06T22:30:23.188Z,-0.29
2023-03-06T22:40:26.160Z,-0.14
2023-03-06T22:50:28.418Z,-0.29
2023-03-06T23:00:30.665Z,-0.71
2023-03-06T23:10:38.226Z,-1.12
2023-03-06T23:20:43.973Z,-1.00
2023-03-06T23:30:46.390Z,-1.10
2023-03-06T23:40:49.687Z,-1.31
2023-03-06T23:50:51.881Z,-1.35
